sensor_id;sensor_type;location;lat;lon;timestamp;pressure;altitude;pressure_sealevel;temperature;humidity
19208;BME280;9737;59.466;18.036;2023-12-20T00:01:19;94783.00;;;-0.90;84.78
19208;BME280;9737;59.466;18.036;2023-12-20T00:03:48;94791.13;;;-0.85;84.50
19208;BME280;9737;59.466;18.036;2023-12-20T00:06:16;94820.53;;;-0.77;84.68
19208;BME280;9737;59.466;18.036;2023-12-20T00:08:44;94822.97;;;-0.75;84.88
19208;BME280;9737;59.466;18.036;2023-12-20T00:11:11;94822.97;;;-0.75;85.12
19208;BME280;9737;59.466;18.036;2023-12-20T00:13:39;94840.66;;;-0.71;85.07
19208;BME280;9737;59.466;18.036;2023-12-20T00:16:07;94859.00;;;-0.64;85.04
19208;BME280;9737;59.466;18.036;2023-12-20T00:18:35;94868.47;;;-0.63;85.02
19208;BME280;9737;59.466;18.036;2023-12-20T00:21:04;94853.97;;;-0.66;84.60
19208;BME280;9737;59.466;18.036;2023-12-20T00:23:32;94848.94;;;-0.67;84.83
19208;BME280;9737;59.466;18.036;2023-12-20T00:26:01;94869.44;;;-0.64;84.49
19208;BME280;9737;59.466;18.036;2023-12-20T00:28:29;94845.72;;;-0.69;84.80
19208;BME280;9737;59.466;18.036;2023-12-20T00:30:57;94804.44;;;-0.80;85.00
19208;BME280;9737;59.466;18.036;2023-12-20T00:33:25;94779.91;;;-0.86;84.36
19208;BME280;9737;59.466;18.036;2023-12-20T00:35:53;94752.91;;;-0.93;84.80
19208;BME280;9737;59.466;18.036;2023-12-20T00:38:22;94749.66;;;-0.95;85.05
19208;BME280;9737;59.466;18.036;2023-12-20T00:40:50;94737.97;;;-0.99;84.80
19208;BME280;9737;59.466;18.036;2023-12-20T00:43:18;94700.78;;;-1.08;84.46
19208;BME280;9737;59.466;18.036;2023-12-20T00:45:46;94699.00;;;-1.07;84.88
19208;BME280;9737;59.466;18.036;2023-12-20T00:48:13;94663.75;;;-1.18;84.54
19208;BME280;9737;59.466;18.036;2023-12-20T00:50:41;94626.56;;;-1.27;84.41
19208;BME280;9737;59.466;18.036;2023-12-20T00:53:09;94604.84;;;-1.34;84.57
19208;BME280;9737;59.466;18.036;2023-12-20T00:55:38;94577.09;;;-1.41;84.66
19208;BME280;9737;59.466;18.036;2023-12-20T00:58:07;94572.88;;;-1.42;84.54
19208;BME280;9737;59.466;18.036;2023-12-20T01:00:34;94501.13;;;-1.60;84.78
19208;BME280;9737;59.466;18.036;2023-12-20T01:03:03;94533.25;;;-1.52;84.76
19208;BME280;9737;59.466;18.036;2023-12-20T01:05:31;94582.13;;;-1.40;84.88
19208;BME280;9737;59.466;18.036;2023-12-20T01:07:59;94579.50;;;-1.40;84.85
19208;BME280;9737;59.466;18.036;2023-12-20T01:10:27;94587.16;;;-1.38;84.38
19208;BME280;9737;59.466;18.036;2023-12-20T01:12:57;94576.28;;;-1.42;84.83
19208;BME280;9737;59.466;18.036;2023-12-20T01:15:25;94513.78;;;-1.57;84.80
19208;BME280;9737;59.466;18.036;2023-12-20T01:17:52;94421.97;;;-1.80;84.74
19208;BME280;9737;59.466;18.036;2023-12-20T01:20:20;94405.47;;;-1.87;84.57
19208;BME280;9737;59.466;18.036;2023-12-20T01:22:48;94414.72;;;-1.84;84.88
19208;BME280;9737;59.466;18.036;2023-12-20T01:25:16;94492.88;;;-1.63;84.61
19208;BME280;9737;59.466;18.036;2023-12-20T01:27:44;94521.22;;;-1.53;84.89
19208;BME280;9737;59.466;18.036;2023-12-20T01:30:14;94565.88;;;-1.42;84.91
19208;BME280;9737;59.466;18.036;2023-12-20T01:32:42;94574.19;;;-1.46;84.76
19208;BME280;9737;59.466;18.036;2023-12-20T01:35:10;94542.31;;;-1.48;84.86
19208;BME280;9737;59.466;18.036;2023-12-20T01:37:39;94522.22;;;-1.54;84.97
19208;BME280;9737;59.466;18.036;2023-12-20T01:40:08;94501.94;;;-1.59;84.84
19208;BME280;9737;59.466;18.036;2023-12-20T01:42:36;94475.19;;;-1.68;84.49
19208;BME280;9737;59.466;18.036;2023-12-20T01:45:05;94459.13;;;-1.71;84.63
19208;BME280;9737;59.466;18.036;2023-12-20T01:47:35;94473.59;;;-1.69;84.62
19208;BME280;9737;59.466;18.036;2023-12-20T01:50:04;94532.25;;;-1.51;84.49
19208;BME280;9737;59.466;18.036;2023-12-20T01:52:35;94559.84;;;-1.42;84.94
19208;BME280;9737;59.466;18.036;2023-12-20T01:55:04;94557.94;;;-1.48;84.55
19208;BME280;9737;59.466;18.036;2023-12-20T01:57:40;94612.09;;;-1.29;84.97
19208;BME280;9737;59.466;18.036;2023-12-20T02:00:09;94659.53;;;-1.19;84.92
19208;BME280;9737;59.466;18.036;2023-12-20T02:02:40;94671.56;;;-1.18;84.64
19208;BME280;9737;59.466;18.036;2023-12-20T02:05:09;94681.28;;;-1.12;84.82
19208;BME280;9737;59.466;18.036;2023-12-20T02:07:37;94688.13;;;-1.11;84.98
19208;BME280;9737;59.466;18.036;2023-12-20T02:10:05;94671.22;;;-1.15;84.48
19208;BME280;9737;59.466;18.036;2023-12-20T02:12:33;94659.34;;;-1.17;85.10
19208;BME280;9737;59.466;18.036;2023-12-20T02:15:01;94657.72;;;-1.18;84.70
19208;BME280;9737;59.466;18.036;2023-12-20T02:17:29;94637.25;;;-1.21;84.77
19208;BME280;9737;59.466;18.036;2023-12-20T02:19:59;94634.81;;;-1.23;84.79
19208;BME280;9737;59.466;18.036;2023-12-20T02:22:28;94613.28;;;-1.32;84.53
19208;BME280;9737;59.466;18.036;2023-12-20T02:24:56;94552.91;;;-1.50;84.74
19208;BME280;9737;59.466;18.036;2023-12-20T02:27:24;94522.03;;;-1.53;84.57
19208;BME280;9737;59.466;18.036;2023-12-20T02:29:52;94455.72;;;-1.72;84.98
19208;BME280;9737;59.466;18.036;2023-12-20T02:32:26;94452.47;;;-1.74;84.70
19208;BME280;9737;59.466;18.036;2023-12-20T02:34:54;94508.56;;;-1.57;84.98
19208;BME280;9737;59.466;18.036;2023-12-20T02:37:23;94593.59;;;-1.34;85.08
19208;BME280;9737;59.466;18.036;2023-12-20T02:39:52;94631.59;;;-1.25;84.78
19208;BME280;9737;59.466;18.036;2023-12-20T02:42:20;94656.72;;;-1.17;84.62
19208;BME280;9737;59.466;18.036;2023-12-20T02:44:48;94704.03;;;-1.06;84.96
19208;BME280;9737;59.466;18.036;2023-12-20T02:47:15;94707.44;;;-1.05;84.88
19208;BME280;9737;59.466;18.036;2023-12-20T02:49:43;94697.19;;;-1.07;84.95
19208;BME280;9737;59.466;18.036;2023-12-20T02:52:11;94705.00;;;-1.07;84.57
19208;BME280;9737;59.466;18.036;2023-12-20T02:54:39;94715.88;;;-1.03;84.89
19208;BME280;9737;59.466;18.036;2023-12-20T02:57:08;94735.19;;;-0.98;84.94
19208;BME280;9737;59.466;18.036;2023-12-20T02:59:36;94760.53;;;-0.91;84.75
19208;BME280;9737;59.466;18.036;2023-12-20T03:02:04;94775.81;;;-0.88;85.18
19208;BME280;9737;59.466;18.036;2023-12-20T03:04:32;94791.59;;;-0.82;84.76
19208;BME280;9737;59.466;18.036;2023-12-20T03:07:00;94792.22;;;-0.80;84.65
19208;BME280;9737;59.466;18.036;2023-12-20T03:09:28;94826.19;;;-0.73;84.61
19208;BME280;9737;59.466;18.036;2023-12-20T03:12:08;94849.94;;;-0.68;85.28
19208;BME280;9737;59.466;18.036;2023-12-20T03:14:36;94823.59;;;-0.73;85.04
19208;BME280;9737;59.466;18.036;2023-12-20T03:17:04;94810.91;;;-0.76;84.60
19208;BME280;9737;59.466;18.036;2023-12-20T03:19:32;94797.59;;;-0.81;85.02
19208;BME280;9737;59.466;18.036;2023-12-20T03:21:59;94783.94;;;-0.83;85.05
19208;BME280;9737;59.466;18.036;2023-12-20T03:24:27;94789.97;;;-0.83;85.25
19208;BME280;9737;59.466;18.036;2023-12-20T03:26:55;94817.75;;;-0.75;85.27
19208;BME280;9737;59.466;18.036;2023-12-20T03:29:24;94807.66;;;-0.78;84.91
19208;BME280;9737;59.466;18.036;2023-12-20T03:31:52;94810.28;;;-0.78;84.90
19208;BME280;9737;59.466;18.036;2023-12-20T03:34:20;94816.94;;;-0.76;84.67
19208;BME280;9737;59.466;18.036;2023-12-20T03:36:48;94798.41;;;-0.81;84.79
19208;BME280;9737;59.466;18.036;2023-12-20T03:39:16;94794.38;;;-0.83;85.05
19208;BME280;9737;59.466;18.036;2023-12-20T03:41:44;94774.19;;;-0.89;84.88
19208;BME280;9737;59.466;18.036;2023-12-20T03:44:12;94787.53;;;-0.84;84.68
19208;BME280;9737;59.466;18.036;2023-12-20T03:46:41;94800.84;;;-0.79;84.97
19208;BME280;9737;59.466;18.036;2023-12-20T03:49:09;94806.06;;;-0.79;85.29
19208;BME280;9737;59.466;18.036;2023-12-20T03:51:37;94825.38;;;-0.74;85.38
19208;BME280;9737;59.466;18.036;2023-12-20T03:54:05;94829.44;;;-0.71;84.98
19208;BME280;9737;59.466;18.036;2023-12-20T03:56:32;94822.97;;;-0.75;84.58
19208;BME280;9737;59.466;18.036;2023-12-20T03:59:01;94821.97;;;-0.74;84.89
19208;BME280;9737;59.466;18.036;2023-12-20T04:01:29;94829.34;;;-0.78;84.71
19208;BME280;9737;59.466;18.036;2023-12-20T04:03:58;94835.63;;;-0.72;85.32
19208;BME280;9737;59.466;18.036;2023-12-20T04:06:26;94827.19;;;-0.74;85.08
19208;BME280;9737;59.466;18.036;2023-12-20T04:08:54;94833.84;;;-0.72;85.04
19208;BME280;9737;59.466;18.036;2023-12-20T04:11:22;94816.13;;;-0.76;85.22
19208;BME280;9737;59.466;18.036;2023-12-20T04:13:50;94810.91;;;-0.76;84.75
19208;BME280;9737;59.466;18.036;2023-12-20T04:16:18;94811.28;;;-0.79;84.96
19208;BME280;9737;59.466;18.036;2023-12-20T04:18:45;94783.13;;;-0.84;85.17
19208;BME280;9737;59.466;18.036;2023-12-20T04:21:15;94747.88;;;-0.95;85.08
19208;BME280;9737;59.466;18.036;2023-12-20T04:23:42;94724.94;;;-0.99;85.07
19208;BME280;9737;59.466;18.036;2023-12-20T04:26:10;94720.91;;;-1.02;84.80
19208;BME280;9737;59.466;18.036;2023-12-20T04:28:38;94722.53;;;-1.01;85.42
19208;BME280;9737;59.466;18.036;2023-12-20T04:31:06;94723.16;;;-0.99;85.06
19208;BME280;9737;59.466;18.036;2023-12-20T04:33:33;94736.81;;;-0.97;84.95
19208;BME280;9737;59.466;18.036;2023-12-20T04:36:01;94747.25;;;-0.97;85.07
19208;BME280;9737;59.466;18.036;2023-12-20T04:38:31;94763.78;;;-0.89;84.77
19208;BME280;9737;59.466;18.036;2023-12-20T04:40:58;94787.53;;;-0.84;85.10
19208;BME280;9737;59.466;18.036;2023-12-20T04:43:27;94791.59;;;-0.82;85.45
19208;BME280;9737;59.466;18.036;2023-12-20T04:45:56;94793.38;;;-0.82;85.08
19208;BME280;9737;59.466;18.036;2023-12-20T04:48:24;94805.69;;;-0.76;85.42
19208;BME280;9737;59.466;18.036;2023-12-20T04:50:52;94809.91;;;-0.75;85.48
19208;BME280;9737;59.466;18.036;2023-12-20T04:53:19;94821.97;;;-0.74;84.82
19208;BME280;9737;59.466;18.036;2023-12-20T04:55:49;94832.03;;;-0.71;85.45
19208;BME280;9737;59.466;18.036;2023-12-20T04:58:16;94825.19;;;-0.72;85.10
19208;BME280;9737;59.466;18.036;2023-12-20T05:00:44;94825.19;;;-0.72;84.94
19208;BME280;9737;59.466;18.036;2023-12-20T05:03:12;94805.44;;;-0.81;85.44
19208;BME280;9737;59.466;18.036;2023-12-20T05:05:40;94782.31;;;-0.84;84.96
19208;BME280;9737;59.466;18.036;2023-12-20T05:08:08;94801.03;;;-0.81;85.34
19208;BME280;9737;59.466;18.036;2023-12-20T05:10:36;94800.84;;;-0.79;84.95
19208;BME280;9737;59.466;18.036;2023-12-20T05:13:05;94806.88;;;-0.79;84.97
19208;BME280;9737;59.466;18.036;2023-12-20T05:15:34;94793.19;;;-0.81;85.13
19208;BME280;9737;59.466;18.036;2023-12-20T05:18:02;94799.22;;;-0.80;85.37
19208;BME280;9737;59.466;18.036;2023-12-20T05:20:31;94775.00;;;-0.89;85.34
19208;BME280;9737;59.466;18.036;2023-12-20T05:22:59;94766.56;;;-0.91;85.17
19208;BME280;9737;59.466;18.036;2023-12-20T05:25:27;94734.38;;;-0.98;85.14
19208;BME280;9737;59.466;18.036;2023-12-20T05:27:55;94764.59;;;-0.89;85.31
19208;BME280;9737;59.466;18.036;2023-12-20T05:30:24;94763.78;;;-0.89;85.25
19208;BME280;9737;59.466;18.036;2023-12-20T05:32:53;94763.78;;;-0.89;85.17
19208;BME280;9737;59.466;18.036;2023-12-20T05:35:21;94773.03;;;-0.87;85.42
19208;BME280;9737;59.466;18.036;2023-12-20T05:37:50;94782.31;;;-0.84;85.26
19208;BME280;9737;59.466;18.036;2023-12-20T05:40:18;94755.31;;;-0.91;85.38
19208;BME280;9737;59.466;18.036;2023-12-20T05:42:47;94742.03;;;-0.97;85.51
19208;BME280;9737;59.466;18.036;2023-12-20T05:45:15;94740.84;;;-0.94;85.32
19208;BME280;9737;59.466;18.036;2023-12-20T05:47:44;94759.91;;;-0.94;85.50
19208;BME280;9737;59.466;18.036;2023-12-20T05:50:12;94754.69;;;-0.94;85.28
19208;BME280;9737;59.466;18.036;2023-12-20T05:52:40;94759.72;;;-0.92;85.22
19208;BME280;9737;59.466;18.036;2023-12-20T05:55:08;94747.69;;;-0.93;85.59
19208;BME280;9737;59.466;18.036;2023-12-20T05:57:36;94756.50;;;-0.94;84.99
19208;BME280;9737;59.466;18.036;2023-12-20T06:00:04;94777.44;;;-0.87;85.61
19208;BME280;9737;59.466;18.036;2023-12-20T06:02:33;94799.22;;;-0.80;85.52
19208;BME280;9737;59.466;18.036;2023-12-20T06:05:02;94812.88;;;-0.78;85.47
19208;BME280;9737;59.466;18.036;2023-12-20T06:07:31;94828.19;;;-0.75;85.49
19208;BME280;9737;59.466;18.036;2023-12-20T06:09:59;94813.50;;;-0.76;85.38
19208;BME280;9737;59.466;18.036;2023-12-20T06:12:27;94815.31;;;-0.77;85.27
19208;BME280;9737;59.466;18.036;2023-12-20T06:14:55;94818.72;;;-0.76;85.35
19208;BME280;9737;59.466;18.036;2023-12-20T06:17:24;94821.34;;;-0.76;85.28
19208;BME280;9737;59.466;18.036;2023-12-20T06:19:51;94827.19;;;-0.74;85.33
19208;BME280;9737;59.466;18.036;2023-12-20T06:22:21;94818.72;;;-0.76;85.66
19208;BME280;9737;59.466;18.036;2023-12-20T06:24:49;94816.94;;;-0.76;85.43
19208;BME280;9737;59.466;18.036;2023-12-20T06:27:16;94833.03;;;-0.72;85.54
19208;BME280;9737;59.466;18.036;2023-12-20T06:29:44;94855.78;;;-0.66;85.48
19208;BME280;9737;59.466;18.036;2023-12-20T06:32:12;94854.78;;;-0.65;85.42
19208;BME280;9737;59.466;18.036;2023-12-20T06:34:40;94865.22;;;-0.65;85.38
19208;BME280;9737;59.466;18.036;2023-12-20T06:37:08;94859.19;;;-0.66;85.25
19208;BME280;9737;59.466;18.036;2023-12-20T06:39:37;94848.31;;;-0.69;85.73
19208;BME280;9737;59.466;18.036;2023-12-20T06:42:05;94839.88;;;-0.71;85.18
19208;BME280;9737;59.466;18.036;2023-12-20T06:44:33;94840.66;;;-0.71;85.72
19208;BME280;9737;59.466;18.036;2023-12-20T06:47:01;94875.28;;;-0.62;85.13
19208;BME280;9737;59.466;18.036;2023-12-20T06:49:29;94873.50;;;-0.62;85.41
19208;BME280;9737;59.466;18.036;2023-12-20T06:51:57;94866.84;;;-0.64;85.57
19208;BME280;9737;59.466;18.036;2023-12-20T06:54:25;94871.69;;;-0.61;85.17
19208;BME280;9737;59.466;18.036;2023-12-20T06:56:54;94878.53;;;-0.60;85.44
19208;BME280;9737;59.466;18.036;2023-12-20T06:59:21;94885.38;;;-0.59;85.36
19208;BME280;9737;59.466;18.036;2023-12-20T07:01:49;94894.00;;;-0.58;85.67
19208;BME280;9737;59.466;18.036;2023-12-20T07:04:17;94891.25;;;-0.57;85.46
19208;BME280;9737;59.466;18.036;2023-12-20T07:06:47;94885.38;;;-0.59;85.19
19208;BME280;9737;59.466;18.036;2023-12-20T07:09:18;94858.38;;;-0.66;85.11
19208;BME280;9737;59.466;18.036;2023-12-20T07:11:45;94858.38;;;-0.66;85.53
19208;BME280;9737;59.466;18.036;2023-12-20T07:14:14;94873.69;;;-0.63;85.14
19208;BME280;9737;59.466;18.036;2023-12-20T07:16:42;94878.53;;;-0.60;85.80
19208;BME280;9737;59.466;18.036;2023-12-20T07:19:10;94889.44;;;-0.56;85.56
19208;BME280;9737;59.466;18.036;2023-12-20T07:21:38;94904.75;;;-0.53;85.49
19208;BME280;9737;59.466;18.036;2023-12-20T07:24:06;94894.66;;;-0.56;85.90
19208;BME280;9737;59.466;18.036;2023-12-20T07:26:34;94909.97;;;-0.53;85.32
19208;BME280;9737;59.466;18.036;2023-12-20T07:29:04;94916.63;;;-0.51;85.69
19208;BME280;9737;59.466;18.036;2023-12-20T07:31:34;94925.69;;;-0.47;85.31
19208;BME280;9737;59.466;18.036;2023-12-20T07:34:02;94953.06;;;-0.43;85.58
19208;BME280;9737;59.466;18.036;2023-12-20T07:36:30;94971.59;;;-0.38;85.20
19208;BME280;9737;59.466;18.036;2023-12-20T07:38:58;94965.75;;;-0.40;85.73
19208;BME280;9737;59.466;18.036;2023-12-20T07:41:26;94968.78;;;-0.36;85.52
19208;BME280;9737;59.466;18.036;2023-12-20T07:43:54;94970.59;;;-0.37;85.89
19208;BME280;9737;59.466;18.036;2023-12-20T07:46:23;94997.44;;;-0.28;85.56
19208;BME280;9737;59.466;18.036;2023-12-20T07:48:52;95001.03;;;-0.29;85.51
19208;BME280;9737;59.466;18.036;2023-12-20T07:51:20;95010.31;;;-0.26;85.84
19208;BME280;9737;59.466;18.036;2023-12-20T07:53:48;95012.13;;;-0.27;85.37
19208;BME280;9737;59.466;18.036;2023-12-20T07:56:16;95017.97;;;-0.25;85.74
19208;BME280;9737;59.466;18.036;2023-12-20T07:58:45;95034.72;;;-0.19;85.40
19208;BME280;9737;59.466;18.036;2023-12-20T08:01:19;95044.16;;;-0.18;86.07
19208;BME280;9737;59.466;18.036;2023-12-20T08:03:49;95041.56;;;-0.18;85.38
19208;BME280;9737;59.466;18.036;2023-12-20T08:06:19;95052.28;;;-0.13;85.78
19208;BME280;9737;59.466;18.036;2023-12-20T08:08:47;95060.72;;;-0.11;85.56
19208;BME280;9737;59.466;18.036;2023-12-20T08:11:27;95066.59;;;-0.09;85.34
19208;BME280;9737;59.466;18.036;2023-12-20T08:13:55;95077.03;;;-0.09;85.91
19208;BME280;9737;59.466;18.036;2023-12-20T08:16:23;95081.25;;;-0.08;85.47
19208;BME280;9737;59.466;18.036;2023-12-20T08:18:51;95085.31;;;-0.06;85.66
19208;BME280;9737;59.466;18.036;2023-12-20T08:21:20;95101.44;;;-0.02;85.56
19208;BME280;9737;59.466;18.036;2023-12-20T08:23:49;95097.84;;;-0.01;85.87
19208;BME280;9737;59.466;18.036;2023-12-20T08:26:18;95130.47;;;0.03;85.61
19208;BME280;9737;59.466;18.036;2023-12-20T08:28:47;95128.50;;;0.05;85.56
19208;BME280;9737;59.466;18.036;2023-12-20T08:31:16;95136.31;;;0.05;85.84
19208;BME280;9737;59.466;18.036;2023-12-20T08:33:44;95143.81;;;0.08;85.75
19208;BME280;9737;59.466;18.036;2023-12-20T08:36:13;95149.03;;;0.08;85.82
19208;BME280;9737;59.466;18.036;2023-12-20T08:38:42;95118.44;;;-0.06;85.60
19208;BME280;9737;59.466;18.036;2023-12-20T08:41:13;95155.53;;;0.12;85.36
19208;BME280;9737;59.466;18.036;2023-12-20T08:43:40;95150.66;;;0.09;85.40
19208;BME280;9737;59.466;18.036;2023-12-20T08:46:08;95146.25;;;0.10;85.78
19208;BME280;9737;59.466;18.036;2023-12-20T08:48:37;95155.53;;;0.12;86.08
19208;BME280;9737;59.466;18.036;2023-12-20T08:51:05;95169.22;;;0.14;85.75
19208;BME280;9737;59.466;18.036;2023-12-20T08:53:35;95173.25;;;0.17;85.62
19208;BME280;9737;59.466;18.036;2023-12-20T08:56:05;95176.69;;;0.17;85.40
19208;BME280;9737;59.466;18.036;2023-12-20T08:58:33;95179.94;;;0.19;85.77
19208;BME280;9737;59.466;18.036;2023-12-20T09:01:03;95200.47;;;0.22;85.61
19208;BME280;9737;59.466;18.036;2023-12-20T09:03:31;95191.00;;;0.21;85.59
19208;BME280;9737;59.466;18.036;2023-12-20T09:05:58;95204.72;;;0.23;86.04
19208;BME280;9737;59.466;18.036;2023-12-20T09:08:26;95210.41;;;0.27;85.40
19208;BME280;9737;59.466;18.036;2023-12-20T09:10:54;95224.94;;;0.29;85.67
19208;BME280;9737;59.466;18.036;2023-12-20T09:13:24;95232.59;;;0.31;85.68
19208;BME280;9737;59.466;18.036;2023-12-20T09:15:54;95231.59;;;0.32;85.96
19208;BME280;9737;59.466;18.036;2023-12-20T09:18:23;95248.72;;;0.35;85.90
19208;BME280;9737;59.466;18.036;2023-12-20T09:20:51;95256.03;;;0.39;85.94
19208;BME280;9737;59.466;18.036;2023-12-20T09:23:19;95263.53;;;0.42;85.73
19208;BME280;9737;59.466;18.036;2023-12-20T09:25:47;95282.63;;;0.43;85.59
19208;BME280;9737;59.466;18.036;2023-12-20T09:28:14;95282.28;;;0.46;86.03
19208;BME280;9737;59.466;18.036;2023-12-20T09:30:44;95293.34;;;0.48;85.87
19208;BME280;9737;59.466;18.036;2023-12-20T09:33:13;95278.22;;;0.43;85.88
19208;BME280;9737;59.466;18.036;2023-12-20T09:35:41;95286.69;;;0.45;85.66
19208;BME280;9737;59.466;18.036;2023-12-20T09:38:09;95309.66;;;0.50;86.16
19208;BME280;9737;59.466;18.036;2023-12-20T09:40:41;95297.59;;;0.49;86.11
19208;BME280;9737;59.466;18.036;2023-12-20T09:43:11;95319.13;;;0.51;85.67
19208;BME280;9737;59.466;18.036;2023-12-20T09:45:39;95314.72;;;0.51;86.18
19208;BME280;9737;59.466;18.036;2023-12-20T09:48:10;95324.38;;;0.51;85.85
19208;BME280;9737;59.466;18.036;2023-12-20T09:50:39;95323.19;;;0.53;85.90
19208;BME280;9737;59.466;18.036;2023-12-20T09:53:08;95325.00;;;0.53;85.69
19208;BME280;9737;59.466;18.036;2023-12-20T09:55:38;95332.66;;;0.54;85.78
19208;BME280;9737;59.466;18.036;2023-12-20T09:58:07;95336.72;;;0.57;86.01
19208;BME280;9737;59.466;18.036;2023-12-20T10:00:35;95350.47;;;0.59;85.68
19208;BME280;9737;59.466;18.036;2023-12-20T10:03:03;95363.19;;;0.62;86.03
19208;BME280;9737;59.466;18.036;2023-12-20T10:05:35;95367.41;;;0.63;85.82
19208;BME280;9737;59.466;18.036;2023-12-20T10:08:03;95369.03;;;0.64;86.09
19208;BME280;9737;59.466;18.036;2023-12-20T10:10:32;95358.94;;;0.61;85.96
19208;BME280;9737;59.466;18.036;2023-12-20T10:13:12;95354.34;;;0.63;86.00
19208;BME280;9737;59.466;18.036;2023-12-20T10:15:40;95375.91;;;0.65;86.19
19208;BME280;9737;59.466;18.036;2023-12-20T10:18:09;95379.31;;;0.66;85.89
19208;BME280;9737;59.466;18.036;2023-12-20T10:20:40;95372.31;;;0.66;85.93
19208;BME280;9737;59.466;18.036;2023-12-20T10:23:08;95374.28;;;0.64;85.67
19208;BME280;9737;59.466;18.036;2023-12-20T10:25:36;95390.88;;;0.71;85.94
19208;BME280;9737;59.466;18.036;2023-12-20T10:28:12;95408.84;;;0.74;86.18
19208;BME280;9737;59.466;18.036;2023-12-20T10:30:41;95392.84;;;0.69;86.19
19208;BME280;9737;59.466;18.036;2023-12-20T10:33:10;95394.94;;;0.74;85.95
19208;BME280;9737;59.466;18.036;2023-12-20T10:35:40;95406.22;;;0.74;86.02
19208;BME280;9737;59.466;18.036;2023-12-20T10:38:14;95394.47;;;0.70;85.94
19208;BME280;9737;59.466;18.036;2023-12-20T10:40:45;95388.28;;;0.71;86.28
19208;BME280;9737;59.466;18.036;2023-12-20T10:43:13;95380.78;;;0.68;86.07
19208;BME280;9737;59.466;18.036;2023-12-20T10:45:42;95383.38;;;0.68;86.29
19208;BME280;9737;59.466;18.036;2023-12-20T10:48:10;95414.06;;;0.74;86.27
19208;BME280;9737;59.466;18.036;2023-12-20T10:50:41;95409.47;;;0.76;86.30
19208;BME280;9737;59.466;18.036;2023-12-20T10:53:09;95435.91;;;0.81;86.07
19208;BME280;9737;59.466;18.036;2023-12-20T10:55:38;95425.44;;;0.81;85.76
19208;BME280;9737;59.466;18.036;2023-12-20T10:58:07;95436.88;;;0.80;86.17
19208;BME280;9737;59.466;18.036;2023-12-20T11:00:39;95438.53;;;0.81;86.11
19208;BME280;9737;59.466;18.036;2023-12-20T11:03:09;95450.25;;;0.85;86.16
19208;BME280;9737;59.466;18.036;2023-12-20T11:05:42;95443.41;;;0.84;86.19
19208;BME280;9737;59.466;18.036;2023-12-20T11:08:21;95457.13;;;0.86;86.20
19208;BME280;9737;59.466;18.036;2023-12-20T11:10:55;95469.88;;;0.89;86.44
19208;BME280;9737;59.466;18.036;2023-12-20T11:13:30;95458.78;;;0.87;85.94
19208;BME280;9737;59.466;18.036;2023-12-20T11:15:59;95438.53;;;0.81;86.11
19208;BME280;9737;59.466;18.036;2023-12-20T11:18:30;95442.59;;;0.84;86.02
19208;BME280;9737;59.466;18.036;2023-12-20T11:21:02;95444.38;;;0.83;86.11
19208;BME280;9737;59.466;18.036;2023-12-20T11:23:32;95453.69;;;0.86;86.07
19208;BME280;9737;59.466;18.036;2023-12-20T11:26:02;95419.13;;;0.76;86.32
19208;BME280;9737;59.466;18.036;2023-12-20T11:28:30;95431.84;;;0.79;86.11
19208;BME280;9737;59.466;18.036;2023-12-20T11:31:00;95428.41;;;0.78;86.51
19208;BME280;9737;59.466;18.036;2023-12-20T11:33:30;95435.25;;;0.79;86.16
19208;BME280;9737;59.466;18.036;2023-12-20T11:35:59;95425.78;;;0.78;86.10
19208;BME280;9737;59.466;18.036;2023-12-20T11:38:35;95444.91;;;0.79;86.13
19208;BME280;9737;59.466;18.036;2023-12-20T11:41:05;95432.66;;;0.79;85.99
19208;BME280;9737;59.466;18.036;2023-12-20T11:43:36;95436.88;;;0.80;86.23
19208;BME280;9737;59.466;18.036;2023-12-20T11:46:05;95433.28;;;0.81;86.40
19208;BME280;9737;59.466;18.036;2023-12-20T11:48:34;95429.03;;;0.80;86.17
19208;BME280;9737;59.466;18.036;2023-12-20T11:51:08;95435.91;;;0.81;86.21
19208;BME280;9737;59.466;18.036;2023-12-20T11:53:38;95435.25;;;0.79;86.27
19208;BME280;9737;59.466;18.036;2023-12-20T11:56:06;95437.69;;;0.81;86.09
19208;BME280;9737;59.466;18.036;2023-12-20T11:58:35;95441.13;;;0.81;86.11
19208;BME280;9737;59.466;18.036;2023-12-20T12:01:03;95438.53;;;0.81;86.37
19208;BME280;9737;59.466;18.036;2023-12-20T12:03:34;95448.63;;;0.84;86.27
19208;BME280;9737;59.466;18.036;2023-12-20T12:06:02;95440.31;;;0.81;86.09
19208;BME280;9737;59.466;18.036;2023-12-20T12:08:31;95433.28;;;0.81;86.42
19208;BME280;9737;59.466;18.036;2023-12-20T12:11:01;95447.00;;;0.83;85.94
19208;BME280;9737;59.466;18.036;2023-12-20T12:13:29;95457.28;;;0.85;86.64
19208;BME280;9737;59.466;18.036;2023-12-20T12:15:58;95458.41;;;0.90;86.24
19208;BME280;9737;59.466;18.036;2023-12-20T12:18:26;95455.47;;;0.85;86.54
19208;BME280;9737;59.466;18.036;2023-12-20T12:21:00;95431.66;;;0.80;86.27
19208;BME280;9737;59.466;18.036;2023-12-20T12:23:38;95438.53;;;0.81;86.10
19208;BME280;9737;59.466;18.036;2023-12-20T12:26:07;95421.56;;;0.77;86.08
19208;BME280;9737;59.466;18.036;2023-12-20T12:28:36;95426.44;;;0.80;86.27
19208;BME280;9737;59.466;18.036;2023-12-20T12:31:04;95449.63;;;0.83;86.25
19208;BME280;9737;59.466;18.036;2023-12-20T12:33:33;95422.38;;;0.78;86.43
19208;BME280;9737;59.466;18.036;2023-12-20T12:36:01;95411.28;;;0.76;86.46
19208;BME280;9737;59.466;18.036;2023-12-20T12:38:30;95419.94;;;0.76;86.20
19208;BME280;9737;59.466;18.036;2023-12-20T12:40:58;95409.81;;;0.73;86.20
19208;BME280;9737;59.466;18.036;2023-12-20T12:43:29;95398.91;;;0.70;86.31
19208;BME280;9737;59.466;18.036;2023-12-20T12:46:01;95391.88;;;0.70;86.42
19208;BME280;9737;59.466;18.036;2023-12-20T12:48:29;95401.34;;;0.71;86.23
19208;BME280;9737;59.466;18.036;2023-12-20T12:50:57;95404.59;;;0.73;86.28
19208;BME280;9737;59.466;18.036;2023-12-20T12:53:26;95426.78;;;0.77;86.27
19208;BME280;9737;59.466;18.036;2023-12-20T12:55:54;95416.69;;;0.74;86.69
19208;BME280;9737;59.466;18.036;2023-12-20T12:58:22;95396.47;;;0.68;86.65
19208;BME280;9737;59.466;18.036;2023-12-20T13:00:53;95384.38;;;0.67;86.32
19208;BME280;9737;59.466;18.036;2023-12-20T13:03:21;95373.47;;;0.64;86.68
19208;BME280;9737;59.466;18.036;2023-12-20T13:05:50;95381.75;;;0.67;86.21
19208;BME280;9737;59.466;18.036;2023-12-20T13:08:18;95367.59;;;0.61;86.41
19208;BME280;9737;59.466;18.036;2023-12-20T13:10:46;95365.78;;;0.62;86.37
19208;BME280;9737;59.466;18.036;2023-12-20T13:13:14;95382.94;;;0.65;86.37